Time;durP1;ratioP1;P1;durP2;ratioP2;P2;SDS_P1;SDS_P2;PMS_P1;PMS_P2;Temp;Humidity;BMP_temperature;BMP_pressure;BME280_temperature;BME280_humidity;BME280_pressure;Samples;Min_cycle;Max_cycle;Signal;HPM_P1;HPM_P2
2022/07/30 00:03:06;;;;;;;7.23;6.63;;;20.40;99.90;;;;;;10540354;28;20219;-77
2022/07/30 00:08:10;;;;;;;6.73;6.30;;;20.50;99.90;;;;;;10554875;28;20199;-78
2022/07/30 00:13:12;;;;;;;6.30;5.90;;;20.50;99.90;;;;;;10553318;28;20231;-78
2022/07/30 00:18:14;;;;;;;7.53;7.03;;;20.60;99.90;;;;;;10584620;28;20560;-78
2022/07/30 00:23:18;;;;;;;6.77;6.27;;;20.60;99.90;;;;;;10584837;28;20306;-78
2022/07/30 00:28:20;;;;;;;6.80;6.20;;;20.60;99.90;;;;;;10567505;28;20203;-78
2022/07/30 00:33:22;;;;;;;7.37;6.87;;;20.60;99.90;;;;;;10548893;28;20231;-79
2022/07/30 00:38:25;;;;;;;7.73;6.90;;;20.60;99.90;;;;;;10556373;28;20192;-78
2022/07/30 00:43:27;;;;;;;6.80;6.40;;;20.60;99.90;;;;;;10554309;28;20211;-78
2022/07/30 00:48:29;;;;;;;7.00;6.50;;;20.60;99.90;;;;;;10556517;28;20776;-78
2022/07/30 00:53:33;;;;;;;7.40;6.90;;;20.60;99.90;;;;;;10539902;28;20789;-78
2022/07/30 00:58:35;;;;;;;7.50;7.00;;;20.60;99.90;;;;;;10559101;28;20203;-78
2022/07/30 01:03:38;;;;;;;7.30;6.70;;;20.70;99.90;;;;;;10555915;28;20222;-78
2022/07/30 01:08:42;;;;;;;6.70;6.20;;;20.70;99.90;;;;;;10560473;28;20224;-79
2022/07/30 01:13:44;;;;;;;7.20;6.53;;;20.70;99.90;;;;;;10572605;28;20336;-78
2022/07/30 01:24:22;;;;;;;7.00;6.60;;;20.70;99.90;;;;;;10584856;28;20215;-79
2022/07/30 01:29:29;;;;;;;6.87;6.47;;;20.70;99.90;;;;;;10578818;28;20298;-79
2022/07/30 01:34:34;;;;;;;7.87;7.33;;;20.60;99.90;;;;;;10577358;28;20230;-78
2022/07/30 01:39:38;;;;;;;6.90;6.50;;;20.60;99.90;;;;;;10562331;28;20243;-79
2022/07/30 01:44:43;;;;;;;6.90;6.50;;;20.50;99.90;;;;;;10551603;28;20298;-78
2022/07/30 01:49:47;;;;;;;7.47;7.07;;;20.50;99.90;;;;;;10561197;28;20256;-78
2022/07/30 01:54:51;;;;;;;8.00;7.40;;;20.50;99.90;;;;;;10544146;28;20255;-78
2022/07/30 01:59:59;;;;;;;8.03;7.53;;;20.40;99.90;;;;;;10533857;28;20648;-78
2022/07/30 02:05:01;;;;;;;7.40;6.90;;;20.40;99.90;;;;;;10530522;28;20287;-78
2022/07/30 02:10:07;;;;;;;7.93;7.43;;;20.30;99.90;;;;;;10558889;28;20238;-78
2022/07/30 02:15:23;;;;;;;7.13;6.73;;;20.20;99.90;;;;;;10551480;28;20316;-78
2022/07/30 02:20:28;;;;;;;8.30;7.60;;;20.20;99.90;;;;;;10560588;28;20227;-79
2022/07/30 02:25:34;;;;;;;7.50;6.90;;;20.10;99.90;;;;;;10533234;28;20216;-79
2022/07/30 02:30:44;;;;;;;7.53;7.13;;;20.10;99.90;;;;;;10533291;28;20298;-78
2022/07/30 02:35:46;;;;;;;8.33;7.77;;;20.00;99.90;;;;;;10563023;28;20585;-78
2022/07/30 02:40:50;;;;;;;8.23;7.57;;;20.00;99.90;;;;;;10533042;28;20279;-78
2022/07/30 02:45:54;;;;;;;7.43;6.93;;;20.00;99.90;;;;;;10523410;28;20255;-78
2022/07/30 02:51:02;;;;;;;7.10;6.70;;;19.90;99.90;;;;;;10549177;28;20212;-78
2022/07/30 02:56:06;;;;;;;7.77;7.17;;;19.90;99.90;;;;;;10515604;28;20228;-78
2022/07/30 03:01:13;;;;;;;7.53;7.07;;;19.90;99.90;;;;;;10568637;28;20585;-78
2022/07/30 03:06:16;;;;;;;8.70;8.20;;;19.80;99.90;;;;;;10580042;28;20272;-80
2022/07/30 03:11:20;;;;;;;7.90;7.40;;;19.80;99.90;;;;;;10578540;28;20235;-78
2022/07/30 03:16:26;;;;;;;7.50;7.00;;;19.80;99.90;;;;;;10573453;28;20230;-78
2022/07/30 03:21:31;;;;;;;8.20;7.40;;;19.70;99.90;;;;;;10568513;28;20229;-78
2022/07/30 03:26:37;;;;;;;8.00;7.60;;;19.60;99.90;;;;;;10577755;28;20299;-78
2022/07/30 03:31:41;;;;;;;7.80;7.30;;;19.60;99.90;;;;;;10551790;28;20227;-78
2022/07/30 03:36:44;;;;;;;7.00;6.60;;;19.50;99.90;;;;;;10566816;28;20221;-79
2022/07/30 03:41:47;;;;;;;7.73;7.13;;;19.40;99.90;;;;;;10587032;28;20205;-78
2022/07/30 03:46:53;;;;;;;8.10;7.30;;;19.40;99.90;;;;;;10560968;28;20273;-78
2022/07/30 03:51:57;;;;;;;7.33;6.83;;;19.30;99.90;;;;;;10546251;28;20215;-78
2022/07/30 03:57:00;;;;;;;7.37;6.87;;;19.30;99.90;;;;;;10545314;28;20269;-78
2022/07/30 04:02:11;;;;;;;7.07;6.47;;;19.30;99.90;;;;;;10553143;28;20192;-78
2022/07/30 04:07:31;;;;;;;7.27;6.77;;;19.20;99.90;;;;;;10546598;28;20221;-78
2022/07/30 04:12:33;;;;;;;7.90;7.23;;;19.20;99.90;;;;;;10564864;28;20706;-78
2022/07/30 04:17:43;;;;;;;8.43;7.73;;;19.10;99.90;;;;;;10549120;28;20205;-78
2022/07/30 04:22:46;;;;;;;8.00;7.40;;;19.10;99.90;;;;;;10562247;28;20289;-78
2022/07/30 04:27:49;;;;;;;8.10;7.47;;;19.10;99.90;;;;;;10538523;28;20200;-78
2022/07/30 04:32:52;;;;;;;7.57;6.87;;;19.10;99.90;;;;;;10576240;28;20227;-78
2022/07/30 04:38:17;;;;;;;7.77;7.27;;;19.10;99.90;;;;;;10545949;28;20653;-78
2022/07/30 04:43:25;;;;;;;7.40;6.80;;;19.10;99.90;;;;;;10549250;28;20219;-79
2022/07/30 04:48:29;;;;;;;6.93;6.33;;;19.10;99.90;;;;;;10533933;28;20204;-78
2022/07/30 04:53:50;;;;;;;7.27;6.87;;;19.10;99.90;;;;;;10577620;28;20214;-79
2022/07/30 04:58:55;;;;;;;8.40;7.90;;;19.10;99.90;;;;;;10568739;28;20198;-79
2022/07/30 05:04:02;;;;;;;7.60;7.03;;;19.10;99.90;;;;;;10587039;28;20229;-79
2022/07/30 05:09:06;;;;;;;8.67;8.07;;;19.10;99.90;;;;;;10580166;28;20282;-79
2022/07/30 05:14:08;;;;;;;7.70;7.17;;;19.20;99.90;;;;;;10564580;28;20247;-79
2022/07/30 05:19:12;;;;;;;12.73;8.60;;;19.20;99.90;;;;;;10573909;28;20711;-79
2022/07/30 05:24:14;;;;;;;8.47;7.90;;;19.30;99.90;;;;;;10580947;28;20219;-78
2022/07/30 05:29:23;;;;;;;8.77;7.87;;;19.40;99.90;;;;;;10593841;28;20195;-78
2022/07/30 05:34:31;;;;;;;8.37;7.87;;;19.40;99.90;;;;;;10580247;28;20306;-78
2022/07/30 05:39:35;;;;;;;8.40;7.90;;;19.50;99.90;;;;;;10583095;28;20267;-77
2022/07/30 05:45:15;;;;;;;9.23;8.57;;;19.60;99.90;;;;;;10537821;28;20219;-79
2022/07/30 05:50:19;;;;;;;8.67;8.03;;;19.70;99.90;;;;;;10563742;28;20227;-79
2022/07/30 05:55:21;;;;;;;10.00;9.30;;;19.80;99.90;;;;;;10567339;28;20255;-79
2022/07/30 06:00:32;;;;;;;9.50;9.00;;;19.90;99.90;;;;;;10579506;28;20211;-78
2022/07/30 06:05:36;;;;;;;7.93;7.33;;;19.90;99.90;;;;;;10570563;28;20613;-79
2022/07/30 06:10:40;;;;;;;7.60;6.93;;;20.10;99.90;;;;;;10568411;28;20219;-77
2022/07/30 06:15:46;;;;;;;9.40;7.90;;;20.10;99.90;;;;;;10554226;28;20215;-79
2022/07/30 06:20:50;;;;;;;6.93;6.57;;;20.20;99.90;;;;;;10566808;28;20199;-79
2022/07/30 06:26:06;;;;;;;9.03;8.43;;;20.30;99.90;;;;;;10562355;28;20238;-79
2022/07/30 06:31:10;;;;;;;9.07;8.50;;;20.50;99.90;;;;;;10580969;28;20232;-79
2022/07/30 06:36:14;;;;;;;8.60;8.00;;;20.70;99.90;;;;;;10581450;28;20686;-79
2022/07/30 06:41:26;;;;;;;8.57;8.07;;;20.90;99.90;;;;;;10581448;28;20199;-79
2022/07/30 06:46:33;;;;;;;7.07;6.47;;;21.10;99.90;;;;;;10559451;28;20219;-79
2022/07/30 06:51:37;;;;;;;7.90;7.40;;;21.40;99.90;;;;;;10568773;28;20226;-79
2022/07/30 06:56:39;;;;;;;8.50;7.83;;;21.50;99.90;;;;;;10579958;28;20298;-79
2022/07/30 07:01:43;;;;;;;8.87;8.17;;;21.70;99.90;;;;;;10589598;28;20516;-79
2022/07/30 07:06:48;;;;;;;10.90;8.10;;;21.90;99.90;;;;;;10518671;22;20285;-83
2022/07/30 07:11:59;;;;;;;6.93;6.43;;;22.20;99.90;;;;;;10456871;28;20316;-83
2022/07/30 07:17:03;;;;;;;8.20;7.60;;;22.40;99.90;;;;;;10408214;28;20226;-83
2022/07/30 07:22:25;;;;;;;7.87;7.27;;;22.60;99.90;;;;;;10437183;28;20202;-83
2022/07/30 07:27:28;;;;;;;7.67;7.07;;;23.00;99.90;;;;;;10444868;28;20279;-84
2022/07/30 07:32:34;;;;;;;8.13;7.33;;;23.30;99.60;;;;;;10443714;28;20227;-84
2022/07/30 07:37:37;;;;;;;6.80;6.40;;;23.70;96.80;;;;;;10444164;28;20225;-84
2022/07/30 07:42:41;;;;;;;10.43;6.53;;;24.00;97.70;;;;;;10455161;28;20226;-83
2022/07/30 07:47:44;;;;;;;7.73;6.60;;;24.30;95.60;;;;;;10430803;28;20221;-83
2022/07/30 07:52:53;;;;;;;6.33;5.93;;;24.60;94.30;;;;;;10409712;28;20218;-84
2022/07/30 07:57:55;;;;;;;6.70;6.10;;;25.00;93.10;;;;;;10419892;28;20203;-84
2022/07/30 08:02:58;;;;;;;5.47;5.07;;;25.40;91.80;;;;;;10446637;28;20194;-83
2022/07/30 08:08:01;;;;;;;6.37;5.97;;;25.80;91.70;;;;;;10389757;28;20205;-84
2022/07/30 08:13:39;;;;;;;6.50;6.10;;;26.20;90.30;;;;;;10441148;28;20224;-83
2022/07/30 08:18:59;;;;;;;6.33;5.73;;;26.70;87.60;;;;;;10450561;28;20200;-84
2022/07/30 08:24:14;;;;;;;8.03;5.70;;;27.20;83.80;;;;;;10404417;28;20217;-82
2022/07/30 08:29:16;;;;;;;5.07;4.30;;;27.60;81.80;;;;;;10436809;28;20195;-82
2022/07/30 08:34:19;;;;;;;6.40;6.00;;;28.00;78.50;;;;;;10407208;28;20248;-82
2022/07/30 08:39:23;;;;;;;6.80;6.27;;;28.00;77.80;;;;;;10426325;28;20640;-82
2022/07/30 08:44:27;;;;;;;5.33;5.03;;;28.20;73.40;;;;;;10425945;28;20218;-84
2022/07/30 08:49:31;;;;;;;5.83;5.30;;;28.50;73.70;;;;;;10448729;28;20217;-82
2022/07/30 08:54:36;;;;;;;5.63;5.07;;;28.80;71.40;;;;;;10420145;28;20225;-82
2022/07/30 08:59:38;;;;;;;5.93;5.33;;;29.00;68.40;;;;;;10430485;28;20197;-82
2022/07/30 09:04:41;;;;;;;5.07;4.77;;;29.00;66.70;;;;;;10446713;28;20267;-82
2022/07/30 09:09:44;;;;;;;3.97;3.73;;;28.80;68.10;;;;;;10408543;28;20206;-82
2022/07/30 09:15:01;;;;;;;5.27;4.87;;;28.80;65.70;;;;;;10409701;28;20638;-82
2022/07/30 09:20:06;;;;;;;5.63;5.20;;;28.60;67.70;;;;;;10407898;28;20216;-82
2022/07/30 09:25:13;;;;;;;5.30;5.00;;;28.10;68.90;;;;;;10391724;28;20232;-82
2022/07/30 09:30:46;;;;;;;6.63;4.83;;;27.90;67.70;;;;;;10431779;28;20275;-84
2022/07/30 09:36:09;;;;;;;5.60;5.10;;;28.40;68.90;;;;;;10424981;28;20739;-82
2022/07/30 09:41:44;;;;;;;5.57;5.03;;;28.90;67.30;;;;;;10390431;28;20194;-81
2022/07/30 09:46:50;;;;;;;5.10;4.80;;;28.90;65.20;;;;;;10376747;28;20705;-82
2022/07/30 09:52:01;;;;;;;5.37;5.03;;;28.90;64.80;;;;;;10403092;28;20208;-81
2022/07/30 09:57:09;;;;;;;5.60;5.20;;;29.10;65.70;;;;;;10385292;28;20328;-82
2022/07/30 10:02:11;;;;;;;5.27;4.87;;;29.20;60.70;;;;;;10387939;28;20266;-82
2022/07/30 10:07:32;;;;;;;5.70;5.30;;;29.00;65.50;;;;;;10409042;28;20232;-82
2022/07/30 10:12:37;;;;;;;5.30;5.00;;;29.30;63.50;;;;;;10414591;28;20263;-82
2022/07/30 10:17:40;;;;;;;5.10;4.90;;;29.80;63.20;;;;;;10401286;28;20229;-81
2022/07/30 10:22:58;;;;;;;4.03;3.43;;;30.30;61.50;;;;;;10388044;28;20225;-81
2022/07/30 10:28:29;;;;;;;8.77;4.83;;;30.20;59.30;;;;;;10407753;28;20237;-82
2022/07/30 10:33:31;;;;;;;6.13;5.63;;;29.80;57.20;;;;;;10383570;28;20615;-82
2022/07/30 10:38:38;;;;;;;5.83;5.13;;;29.20;58.50;;;;;;10452126;28;20197;-81
2022/07/30 10:44:11;;;;;;;4.60;4.37;;;28.80;59.20;;;;;;10432119;28;20300;-82
2022/07/30 10:49:15;;;;;;;4.50;4.30;;;28.40;61.20;;;;;;10401749;28;20206;-84
2022/07/30 10:54:36;;;;;;;5.37;5.07;;;28.20;60.40;;;;;;10418441;28;20467;-84
2022/07/30 11:00:12;;;;;;;4.80;4.50;;;28.00;61.90;;;;;;10415234;28;20215;-84
2022/07/30 11:05:27;;;;;;;3.90;3.70;;;27.90;60.40;;;;;;10432418;28;20217;-83
2022/07/30 11:10:38;;;;;;;6.17;5.67;;;27.90;59.10;;;;;;10390012;28;20209;-83
2022/07/30 11:15:56;;;;;;;5.57;4.97;;;27.90;62.10;;;;;;10408116;28;20316;-84
2022/07/30 11:21:14;;;;;;;5.37;4.97;;;27.70;60.60;;;;;;10409208;28;20288;-84
2022/07/30 11:26:48;;;;;;;4.90;4.47;;;27.50;63.50;;;;;;10446220;28;20676;-84
2022/07/30 11:31:51;;;;;;;5.30;4.93;;;27.30;61.00;;;;;;10391335;28;20236;-83
2022/07/30 11:37:12;;;;;;;5.00;4.50;;;27.10;62.40;;;;;;10429672;28;20237;-82
2022/07/30 11:42:24;;;;;;;4.57;4.37;;;27.00;60.30;;;;;;10418630;28;20241;-81
2022/07/30 11:47:29;;;;;;;5.40;3.90;;;26.80;65.70;;;;;;10412506;28;20227;-81
2022/07/30 11:52:32;;;;;;;5.60;5.30;;;26.70;64.70;;;;;;10420971;28;20289;-81
2022/07/30 11:57:40;;;;;;;5.03;4.53;;;26.60;61.30;;;;;;10413820;28;20714;-81
2022/07/30 12:02:44;;;;;;;4.90;4.60;;;26.40;63.00;;;;;;10419140;28;20197;-83
2022/07/30 12:07:46;;;;;;;5.40;5.10;;;26.30;63.10;;;;;;10399845;28;20709;-84
2022/07/30 12:12:48;;;;;;;4.77;4.57;;;26.40;64.30;;;;;;10412882;28;20217;-83
2022/07/30 12:17:52;;;;;;;5.53;5.03;;;26.30;62.50;;;;;;10405944;28;20208;-82
2022/07/30 12:22:54;;;;;;;4.73;4.43;;;26.40;62.80;;;;;;10418636;28;20221;-84
2022/07/30 12:27:56;;;;;;;4.63;4.43;;;26.40;60.50;;;;;;10440499;28;20209;-84
2022/07/30 12:33:01;;;;;;;4.30;4.10;;;26.40;61.00;;;;;;10412585;28;20227;-85
2022/07/30 12:38:04;;;;;;;6.23;4.70;;;26.40;59.70;;;;;;10441872;28;20205;-84
2022/07/30 12:43:06;;;;;;;4.60;4.03;;;26.50;62.50;;;;;;10406767;28;20245;-84
2022/07/30 12:48:11;;;;;;;5.20;4.90;;;26.50;58.60;;;;;;10428114;28;20216;-84
2022/07/30 12:53:13;;;;;;;4.37;4.07;;;26.50;60.60;;;;;;10399585;28;20313;-84
2022/07/30 12:58:15;;;;;;;3.60;3.40;;;26.50;61.40;;;;;;10421171;28;20206;-82
2022/07/30 13:03:24;;;;;;;4.80;4.50;;;26.50;59.60;;;;;;10443777;22;20763;-81
2022/07/30 13:08:50;;;;;;;5.33;5.00;;;26.40;59.40;;;;;;10461304;28;20208;-79
2022/07/30 13:13:53;;;;;;;4.73;4.47;;;26.60;63.30;;;;;;10460771;28;20732;-79
2022/07/30 13:18:56;;;;;;;4.27;4.07;;;26.60;65.20;;;;;;10429325;28;20279;-80
2022/07/30 13:23:59;;;;;;;5.30;5.00;;;26.50;60.50;;;;;;10458407;28;20641;-80
2022/07/30 13:29:01;;;;;;;4.47;4.27;;;26.50;59.50;;;;;;10442178;28;20197;-80
2022/07/30 13:34:04;;;;;;;4.70;4.50;;;26.50;60.00;;;;;;10450241;28;20228;-82
2022/07/30 13:39:07;;;;;;;4.00;3.80;;;26.40;61.40;;;;;;10457925;28;20205;-81
2022/07/30 13:44:09;;;;;;;4.60;4.30;;;26.40;59.80;;;;;;10430288;28;20226;-79
2022/07/30 13:49:13;;;;;;;3.77;3.57;;;26.50;60.20;;;;;;10424598;28;20204;-82
2022/07/30 13:54:15;;;;;;;4.77;4.47;;;26.50;59.80;;;;;;10442933;28;20260;-81
2022/07/30 13:59:17;;;;;;;3.60;3.30;;;26.40;61.70;;;;;;10444120;28;20227;-82
2022/07/30 14:04:20;;;;;;;5.07;4.70;;;26.40;64.00;;;;;;10458335;28;20229;-81
2022/07/30 14:09:22;;;;;;;3.70;3.50;;;26.30;63.70;;;;;;10458085;28;20708;-82
2022/07/30 14:14:24;;;;;;;4.30;4.00;;;26.30;63.60;;;;;;10442097;28;20225;-81
2022/07/30 14:19:28;;;;;;;3.20;3.00;;;26.30;61.30;;;;;;10462414;28;20260;-82
2022/07/30 14:24:30;;;;;;;8.33;5.07;;;26.30;65.70;;;;;;10468483;28;20700;-82
2022/07/30 14:29:32;;;;;;;3.93;3.73;;;26.40;67.60;;;;;;10442543;28;20201;-81
2022/07/30 14:34:35;;;;;;;4.50;4.30;;;26.40;64.10;;;;;;10458332;28;20782;-80
2022/07/30 14:39:38;;;;;;;4.60;4.30;;;26.40;65.60;;;;;;10456251;28;20207;-80
2022/07/30 14:44:40;;;;;;;4.00;3.80;;;26.40;62.40;;;;;;10464227;28;20221;-81
2022/07/30 14:49:45;;;;;;;4.77;4.47;;;26.40;63.70;;;;;;10464303;28;20293;-81
2022/07/30 14:54:47;;;;;;;5.43;5.10;;;26.50;61.10;;;;;;10458441;28;20307;-81
2022/07/30 14:59:49;;;;;;;4.90;4.50;;;26.60;61.80;;;;;;10424861;28;20234;-82
2022/07/30 15:04:52;;;;;;;5.03;4.70;;;26.60;63.30;;;;;;10454774;28;20229;-80
2022/07/30 15:09:55;;;;;;;4.30;4.10;;;26.70;59.80;;;;;;10455835;28;20201;-80
2022/07/30 15:14:57;;;;;;;5.03;3.37;;;26.70;59.80;;;;;;10441998;28;20221;-80
2022/07/30 15:20:00;;;;;;;4.93;4.63;;;26.70;61.80;;;;;;10449048;28;20287;-80
2022/07/30 15:25:02;;;;;;;3.23;3.03;;;26.60;60.70;;;;;;10429705;28;20689;-80
2022/07/30 15:30:05;;;;;;;5.83;5.33;;;26.60;60.40;;;;;;10418866;28;20194;-78
2022/07/30 15:35:09;;;;;;;5.10;4.70;;;26.60;59.30;;;;;;10405847;28;20217;-78
2022/07/30 15:40:11;;;;;;;4.57;4.37;;;26.50;61.60;;;;;;10425103;28;20198;-80
2022/07/30 15:45:14;;;;;;;5.30;4.70;;;26.40;63.30;;;;;;10445362;28;20243;-80
2022/07/30 15:50:17;;;;;;;4.97;4.67;;;26.40;62.80;;;;;;10441997;28;20232;-78
2022/07/30 15:55:20;;;;;;;4.10;3.90;;;26.40;62.40;;;;;;10421063;28;20267;-78
2022/07/30 16:00:22;;;;;;;5.00;4.70;;;26.40;62.20;;;;;;10421242;28;20214;-78
2022/07/30 16:05:26;;;;;;;4.50;4.20;;;26.60;60.30;;;;;;10446072;28;20587;-79
2022/07/30 16:10:28;;;;;;;4.50;4.20;;;26.70;60.70;;;;;;10441962;28;20678;-79
2022/07/30 16:15:30;;;;;;;3.83;3.63;;;26.70;64.20;;;;;;10427265;28;20291;-79
2022/07/30 16:20:34;;;;;;;4.60;4.40;;;26.90;61.80;;;;;;10461400;28;20209;-79
2022/07/30 16:25:36;;;;;;;4.50;4.30;;;26.90;60.70;;;;;;10455057;28;20332;-79
2022/07/30 16:30:39;;;;;;;5.67;5.27;;;27.00;62.00;;;;;;10447604;28;20189;-79
2022/07/30 16:35:42;;;;;;;4.33;4.03;;;27.00;60.80;;;;;;10457167;28;20220;-78
2022/07/30 16:40:45;;;;;;;5.00;4.60;;;26.90;58.40;;;;;;10461439;28;20201;-78
2022/07/30 16:45:47;;;;;;;4.20;4.00;;;26.90;59.20;;;;;;10453201;28;20304;-79
2022/07/30 16:50:51;;;;;;;4.13;3.83;;;26.90;59.40;;;;;;10444278;28;20251;-81
2022/07/30 16:55:55;;;;;;;3.33;2.93;;;26.80;58.30;;;;;;10433613;28;20280;-78
2022/07/30 17:00:57;;;;;;;3.90;3.60;;;26.70;58.80;;;;;;10455141;28;20197;-77
2022/07/30 17:06:00;;;;;;;4.33;4.03;;;26.60;57.90;;;;;;10433607;28;20265;-77
2022/07/30 17:11:03;;;;;;;4.70;4.43;;;26.50;61.70;;;;;;10435214;28;20208;-78
2022/07/30 17:16:06;;;;;;;4.27;4.07;;;26.40;58.60;;;;;;10416762;28;20315;-79
2022/07/30 17:21:09;;;;;;;4.13;3.93;;;26.40;59.90;;;;;;10431999;28;20189;-79
2022/07/30 17:26:11;;;;;;;3.60;3.40;;;26.30;60.20;;;;;;10418439;28;20644;-80
2022/07/30 17:31:13;;;;;;;4.20;3.90;;;26.30;60.20;;;;;;10416433;28;20677;-78
2022/07/30 17:36:17;;;;;;;4.00;3.80;;;26.20;60.40;;;;;;10438526;28;20221;-79
2022/07/30 17:41:19;;;;;;;3.60;3.40;;;26.20;60.20;;;;;;10446675;28;20248;-78
2022/07/30 17:46:21;;;;;;;4.07;3.80;;;26.10;63.80;;;;;;10451495;28;20221;-79
2022/07/30 17:51:24;;;;;;;4.23;4.03;;;26.00;62.30;;;;;;10456441;28;20201;-79
2022/07/30 17:56:26;;;;;;;3.93;3.73;;;25.90;64.00;;;;;;10458069;28;20251;-80
2022/07/30 18:01:28;;;;;;;4.80;4.50;;;25.90;65.40;;;;;;10446801;28;20198;-79
2022/07/30 18:06:32;;;;;;;4.37;4.07;;;25.80;74.50;;;;;;10437177;28;20232;-79
2022/07/30 18:11:34;;;;;;;4.53;4.23;;;25.80;72.80;;;;;;10459153;28;20203;-79
2022/07/30 18:16:36;;;;;;;4.40;4.10;;;25.70;74.70;;;;;;10461487;28;20231;-79
2022/07/30 18:21:40;;;;;;;4.33;4.03;;;25.60;71.20;;;;;;10462530;28;20197;-79
2022/07/30 18:26:42;;;;;;;4.97;4.67;;;25.60;68.60;;;;;;10461060;28;20212;-79
2022/07/30 18:31:44;;;;;;;5.30;4.80;;;25.50;79.90;;;;;;10461438;28;20777;-79
2022/07/30 18:36:49;;;;;;;6.20;5.70;;;25.40;65.90;;;;;;10459408;28;20641;-79
2022/07/30 18:41:52;;;;;;;5.27;3.93;;;25.40;69.30;;;;;;10443676;28;20228;-79
2022/07/30 18:46:54;;;;;;;6.43;5.83;;;25.30;70.50;;;;;;10460059;28;20217;-79
2022/07/30 18:51:58;;;;;;;4.57;4.27;;;25.20;70.60;;;;;;10461938;28;20204;-79
2022/07/30 18:57:00;;;;;;;5.10;4.80;;;25.00;71.10;;;;;;10463943;28;20670;-79
2022/07/30 19:02:05;;;;;;;5.13;4.67;;;24.90;72.10;;;;;;10464706;28;20204;-79
2022/07/30 19:07:09;;;;;;;4.80;4.50;;;24.70;71.00;;;;;;10467608;28;20252;-79
2022/07/30 19:12:11;;;;;;;5.40;5.10;;;24.60;71.60;;;;;;10445804;28;20743;-79
2022/07/30 19:17:13;;;;;;;6.23;5.43;;;24.40;71.20;;;;;;10443884;28;20268;-79
2022/07/30 19:22:18;;;;;;;8.30;5.43;;;24.30;70.50;;;;;;10468042;28;20201;-79
2022/07/30 19:27:21;;;;;;;5.23;4.93;;;24.20;70.30;;;;;;10465500;28;20308;-79
2022/07/30 19:32:23;;;;;;;4.80;4.50;;;24.10;70.90;;;;;;10447923;28;20640;-78
2022/07/30 19:37:26;;;;;;;6.07;5.57;;;24.00;71.00;;;;;;10453784;28;20216;-79
2022/07/30 19:42:28;;;;;;;5.37;4.93;;;23.90;72.30;;;;;;10454522;28;20209;-79
2022/07/30 19:47:30;;;;;;;5.37;4.97;;;23.80;72.80;;;;;;10455123;28;20228;-79
2022/07/30 19:52:34;;;;;;;4.80;4.50;;;23.70;72.60;;;;;;10458458;28;20284;-80
2022/07/30 19:57:36;;;;;;;4.90;4.60;;;23.70;71.70;;;;;;10466617;28;20221;-79
2022/07/30 20:02:39;;;;;;;5.63;5.20;;;23.70;71.80;;;;;;10458803;28;20193;-78
2022/07/30 20:07:43;;;;;;;5.20;4.80;;;23.60;71.40;;;;;;10439332;28;20753;-82
2022/07/30 20:12:45;;;;;;;5.47;5.07;;;23.50;72.10;;;;;;10402744;28;20283;-80
2022/07/30 20:17:47;;;;;;;5.57;5.20;;;23.40;73.00;;;;;;10434486;28;20252;-78
2022/07/30 20:22:51;;;;;;;5.63;5.07;;;23.30;72.80;;;;;;10466520;28;20228;-79
2022/07/30 20:27:53;;;;;;;5.73;5.33;;;23.20;74.00;;;;;;10439587;28;20279;-79
2022/07/30 20:32:55;;;;;;;5.40;5.00;;;23.20;73.80;;;;;;10465705;28;20247;-79
2022/07/30 20:37:59;;;;;;;5.60;5.20;;;23.10;73.90;;;;;;10458166;28;20299;-79
2022/07/30 20:43:04;;;;;;;5.40;5.00;;;23.00;74.40;;;;;;10458070;28;20583;-79
2022/07/30 20:48:07;;;;;;;5.30;4.90;;;22.90;75.20;;;;;;10459610;28;20223;-79
2022/07/30 20:53:10;;;;;;;5.00;4.70;;;22.80;75.60;;;;;;10462996;28;20233;-79
2022/07/30 20:58:12;;;;;;;5.27;4.87;;;22.80;75.90;;;;;;10442167;28;20207;-79
2022/07/30 21:03:15;;;;;;;5.63;5.17;;;22.80;75.30;;;;;;10432755;28;20285;-79
2022/07/30 21:08:18;;;;;;;5.53;5.03;;;22.80;74.40;;;;;;10445140;28;20202;-79
2022/07/30 21:13:21;;;;;;;6.20;4.77;;;22.70;75.40;;;;;;10433086;28;20209;-78
2022/07/30 21:18:23;;;;;;;5.00;4.70;;;22.60;75.00;;;;;;10458349;28;20233;-79
2022/07/30 21:23:26;;;;;;;5.87;5.33;;;22.60;74.40;;;;;;10460011;28;20677;-79
2022/07/30 21:28:28;;;;;;;5.20;4.70;;;22.50;74.90;;;;;;10458326;28;20204;-78
2022/07/30 21:33:30;;;;;;;4.87;4.57;;;22.50;75.50;;;;;;10424491;28;20235;-79
2022/07/30 21:38:34;;;;;;;5.67;5.23;;;22.40;75.50;;;;;;10441229;28;20196;-78
2022/07/30 21:43:36;;;;;;;5.20;4.90;;;22.40;75.70;;;;;;10434479;28;20222;-79
2022/07/30 21:48:38;;;;;;;5.27;4.83;;;22.30;76.30;;;;;;10438026;28;20201;-78
2022/07/30 21:53:42;;;;;;;4.80;4.50;;;22.30;75.60;;;;;;10457344;28;20224;-78
2022/07/30 21:58:44;;;;;;;5.97;5.30;;;22.30;75.80;;;;;;10455564;28;20203;-78
2022/07/30 22:03:47;;;;;;;5.73;5.33;;;22.30;75.90;;;;;;10453357;28;20232;-78
2022/07/30 22:08:51;;;;;;;4.80;4.50;;;22.20;76.80;;;;;;10435276;28;20205;-78
2022/07/30 22:13:53;;;;;;;5.20;4.80;;;22.20;77.10;;;;;;10448387;28;20229;-78
2022/07/30 22:18:55;;;;;;;5.23;4.83;;;22.20;76.40;;;;;;10453507;28;20283;-78
2022/07/30 22:23:59;;;;;;;6.77;6.27;;;22.20;76.60;;;;;;10434013;28;20953;-78
2022/07/30 22:29:01;;;;;;;4.87;4.47;;;22.20;78.10;;;;;;10407269;28;20302;-78
2022/07/30 22:34:03;;;;;;;4.83;4.63;;;22.20;77.90;;;;;;10420399;28;20300;-77
2022/07/30 22:39:07;;;;;;;6.87;5.50;;;22.20;80.20;;;;;;10421893;28;20193;-78
2022/07/30 22:44:09;;;;;;;4.97;4.60;;;22.20;78.60;;;;;;10420184;28;20697;-78
2022/07/30 22:49:11;;;;;;;6.23;5.60;;;22.20;80.60;;;;;;10416732;28;20291;-78
2022/07/30 22:54:14;;;;;;;5.07;4.77;;;22.20;79.80;;;;;;10405076;28;20583;-78
2022/07/30 22:59:17;;;;;;;4.67;4.37;;;22.20;78.80;;;;;;10435833;28;20277;-78
2022/07/30 23:04:19;;;;;;;4.93;4.63;;;22.30;78.50;;;;;;10437060;28;20301;-78
2022/07/30 23:09:22;;;;;;;4.87;4.47;;;22.30;77.90;;;;;;10441196;28;20679;-77
2022/07/30 23:14:25;;;;;;;5.53;4.80;;;22.30;78.20;;;;;;10431717;28;20217;-77
2022/07/30 23:19:28;;;;;;;4.60;4.30;;;22.30;80.90;;;;;;10433300;28;20782;-78
2022/07/30 23:24:31;;;;;;;4.97;4.67;;;22.20;79.70;;;;;;10404319;28;20236;-78
2022/07/30 23:29:36;;;;;;;4.60;4.40;;;22.30;80.00;;;;;;10431189;28;20281;-80
2022/07/30 23:34:38;;;;;;;4.60;4.30;;;22.20;79.30;;;;;;10452522;28;20263;-78
2022/07/30 23:39:42;;;;;;;5.33;4.90;;;22.10;78.90;;;;;;10457852;28;20201;-80
2022/07/30 23:44:44;;;;;;;4.60;4.30;;;22.10;80.90;;;;;;10440870;28;20664;-79
2022/07/30 23:49:46;;;;;;;4.60;4.30;;;22.00;78.70;;;;;;10440838;28;20220;-80
2022/07/30 23:54:49;;;;;;;4.60;4.30;;;21.90;78.50;;;;;;10462128;28;20236;-82
2022/07/30 23:59:54;;;;;;;4.40;4.20;;;21.80;78.00;;;;;;10463341;28;20276;-79
